Time;durP1;ratioP1;P1;durP2;ratioP2;P2;SDS_P1;SDS_P2;PMS_P1;PMS_P2;Temp;Humidity;BMP_temperature;BMP_pressure;BME280_temperature;BME280_humidity;BME280_pressure;Samples;Min_cycle;Max_cycle;Signal;HPM_P1;HPM_P2
2022/01/02 00:01:01;;;;;;;;;;;;;;;14.61;67.69;101498.06;5141039;27;26815;-80
2022/01/02 00:03:29;;;;;;;;;;;;;;;14.62;67.58;101495.41;5140882;27;27635;-79
2022/01/02 00:05:56;;;;;;;;;;;;;;;14.63;67.58;101493.66;5141054;27;26905;-80
2022/01/02 00:08:21;;;;;;;;;;;;;;;14.61;67.69;101498.06;5140558;27;26931;-80
2022/01/02 00:10:52;;;;;;;;;;;;;;;14.60;67.37;101496.34;5140922;27;27094;-79
2022/01/02 00:13:23;;;;;;;;;;;;;;;14.60;67.77;101491.16;5140092;27;26915;-79
2022/01/02 00:15:50;;;;;;;;;;;;;;;14.62;67.40;101510.19;5140557;27;26956;-80
2022/01/02 00:18:16;;;;;;;;;;;;;;;14.62;67.54;101511.00;5140618;27;27943;-80
2022/01/02 00:20:47;;;;;;;;;;;;;;;14.63;67.83;101517.06;5140426;27;26857;-79
2022/01/02 00:23:18;;;;;;;;;;;;;;;14.61;67.69;101511.91;5140134;27;27328;-80
2022/01/02 00:25:43;;;;;;;;;;;;;;;14.62;67.58;101494.56;5140688;27;26956;-79
2022/01/02 00:28:10;;;;;;;;;;;;;;;14.60;67.67;101475.56;5140151;27;27792;-79
2022/01/02 00:30:36;;;;;;;;;;;;;;;14.58;67.61;101483.41;5139908;27;26854;-79
2022/01/02 00:33:01;;;;;;;;;;;;;;;14.59;67.50;101494.63;5141315;27;27011;-78
2022/01/02 00:35:27;;;;;;;;;;;;;;;14.55;67.68;101482.66;5139658;27;45837;-79
2022/01/02 00:37:52;;;;;;;;;;;;;;;14.48;67.63;101493.22;5140173;27;26890;-79
2022/01/02 00:40:17;;;;;;;;;;;;;;;14.45;67.96;101476.88;5140071;27;26843;-79
2022/01/02 00:42:43;;;;;;;;;;;;;;;14.42;67.87;101490.81;5120601;27;56579;-79
2022/01/02 00:45:14;;;;;;;;;;;;;;;14.37;67.93;101479.69;5139847;27;26944;-78
2022/01/02 00:47:44;;;;;;;;;;;;;;;14.32;68.06;101471.16;5139815;27;26800;-79
2022/01/02 00:50:14;;;;;;;;;;;;;;;14.31;68.12;101495.44;5140481;27;26909;-79
2022/01/02 00:52:40;;;;;;;;;;;;;;;14.32;67.99;101484.13;5139951;27;26803;-79
2022/01/02 00:55:09;;;;;;;;;;;;;;;14.30;68.11;101493.75;5140022;27;26812;-79
2022/01/02 00:57:35;;;;;;;;;;;;;;;14.30;68.32;101498.09;5139876;27;27216;-78
2022/01/02 01:00:07;;;;;;;;;;;;;;;14.32;68.45;101485.91;5139290;27;26729;-79
2022/01/02 01:02:34;;;;;;;;;;;;;;;14.29;68.14;101502.44;5139793;27;26816;-80
2022/01/02 01:05:03;;;;;;;;;;;;;;;14.28;67.98;101500.75;5139804;27;26855;-80
2022/01/02 01:07:28;;;;;;;;;;;;;;;14.29;68.36;101496.38;5139983;27;26901;-78
2022/01/02 01:09:55;;;;;;;;;;;;;;;14.27;68.26;101499.03;5139191;27;38760;-78
2022/01/02 01:12:20;;;;;;;;;;;;;;;14.23;68.68;101497.41;5139312;27;27108;-78
2022/01/02 01:14:46;;;;;;;;;;;;;;;14.22;68.03;101498.31;5139646;27;27032;-78
2022/01/02 01:17:13;;;;;;;;;;;;;;;14.20;68.14;101494.91;5139186;27;26972;-78
2022/01/02 01:19:39;;;;;;;;;;;;;;;14.17;68.12;101502.78;5139261;27;26974;-78
2022/01/02 01:22:04;;;;;;;;;;;;;;;14.15;68.42;101494.19;5138464;27;39382;-78
2022/01/02 01:24:30;;;;;;;;;;;;;;;14.13;68.38;101493.38;5139318;27;27031;-78
2022/01/02 01:26:56;;;;;;;;;;;;;;;14.12;68.32;101499.47;5139543;27;26998;-79
2022/01/02 01:29:22;;;;;;;;;;;;;;;14.12;68.53;101502.06;5139783;27;26876;-78
2022/01/02 01:31:47;;;;;;;;;;;;;;;14.11;68.53;101497.75;5139729;27;27541;-78
2022/01/02 01:34:12;;;;;;;;;;;;;;;14.12;68.46;101483.03;5142013;27;27026;-78
2022/01/02 01:36:37;;;;;;;;;;;;;;;14.12;68.39;101483.88;5139781;27;26947;-78
2022/01/02 01:39:02;;;;;;;;;;;;;;;14.12;68.23;101491.69;5140823;27;26743;-78
2022/01/02 01:41:29;;;;;;;;;;;;;;;14.12;68.61;101486.47;5146320;27;28412;-78
2022/01/02 01:44:08;;;;;;;;;;;;;;;14.12;68.10;101489.09;5143044;27;26810;-79
2022/01/02 01:46:34;;;;;;;;;;;;;;;14.11;68.33;101486.50;5140443;27;26820;-79
2022/01/02 01:48:59;;;;;;;;;;;;;;;14.11;68.36;101476.97;5140192;27;26773;-79
2022/01/02 01:51:25;;;;;;;;;;;;;;;14.09;68.45;101457.16;5138729;27;53234;-79
2022/01/02 01:53:50;;;;;;;;;;;;;;;14.08;68.82;101466.69;5139888;27;26760;-79
2022/01/02 01:56:16;;;;;;;;;;;;;;;14.08;68.61;101461.47;5139755;27;26957;-79
2022/01/02 01:58:41;;;;;;;;;;;;;;;14.07;68.61;101464.97;5139379;27;26798;-78
2022/01/02 02:01:06;;;;;;;;;;;;;;;14.06;68.49;101452.88;5140811;27;26943;-78
2022/01/02 02:03:31;;;;;;;;;;;;;;;14.06;68.51;101452.88;5140465;27;35142;-78
2022/01/02 02:05:57;;;;;;;;;;;;;;;14.03;68.50;101456.41;5139117;27;56148;-79
2022/01/02 02:08:26;;;;;;;;;;;;;;;14.02;68.46;101446.09;5141545;27;26875;-79
2022/01/02 02:10:56;;;;;;;;;;;;;;;14.00;68.80;101453.06;5143257;27;27055;-79
2022/01/02 02:13:21;;;;;;;;;;;;;;;14.01;68.78;101428.78;5142534;27;26752;-79
2022/01/02 02:15:46;;;;;;;;;;;;;;;14.01;68.71;101431.38;5142596;27;27911;-80
2022/01/02 02:18:11;;;;;;;;;;;;;;;14.00;68.39;101421.88;5142940;27;26939;-80
2022/01/02 02:20:36;;;;;;;;;;;;;;;13.98;68.79;101418.50;5141349;27;56078;-80
2022/01/02 02:23:02;;;;;;;;;;;;;;;13.95;68.46;101419.41;5142024;27;40828;-79
2022/01/02 02:25:29;;;;;;;;;;;;;;;13.93;69.04;101428.16;5143901;27;26741;-79
2022/01/02 02:27:57;;;;;;;;;;;;;;;13.91;69.06;101412.59;5148065;27;26569;-79
2022/01/02 02:30:23;;;;;;;;;;;;;;;13.89;69.14;101419.59;5144309;27;26944;-78
2022/01/02 02:32:48;;;;;;;;;;;;;;;13.85;69.12;101411.94;5143119;27;26814;-78
2022/01/02 02:35:14;;;;;;;;;;;;;;;13.84;69.26;101395.50;5143232;27;27720;-78
2022/01/02 02:37:42;;;;;;;;;;;;;;;13.83;69.16;101387.78;5143577;27;26419;-78
2022/01/02 02:40:08;;;;;;;;;;;;;;;13.81;69.27;101385.22;5142403;27;26877;-79
2022/01/02 02:42:44;;;;;;;;;;;;;;;13.81;69.20;101379.16;5142362;27;26854;-79
2022/01/02 02:50:46;;;;;;;;;;;;;;;13.83;69.31;101357.47;5143601;27;26908;-78
2022/01/02 02:53:12;;;;;;;;;;;;;;;13.86;69.50;101356.53;5143277;27;26704;-78
2022/01/02 02:55:43;;;;;;;;;;;;;;;13.87;69.58;101345.25;5143315;27;26798;-78
2022/01/02 02:58:37;;;;;;;;;;;;;;;13.85;69.75;101345.28;5142712;27;26905;-78
2022/01/02 03:00:54;;;;;;;;;;;;;;;13.84;69.86;101337.53;5143123;27;27521;-78
2022/01/02 03:03:19;;;;;;;;;;;;;;;13.84;69.70;101337.53;5143374;27;35041;-78
2022/01/02 03:05:44;;;;;;;;;;;;;;;13.87;69.65;101319.28;5142815;27;54879;-78
2022/01/02 03:08:09;;;;;;;;;;;;;;;13.63;70.55;101275.88;5141841;27;54253;-78
2022/01/02 03:10:34;;;;;;;;;;;;;;;13.88;70.01;101308.81;5140495;27;55185;-79
2022/01/02 03:12:59;;;;;;;;;;;;;;;13.91;70.29;101313.06;5140103;27;53548;-79
2022/01/02 03:15:24;;;;;;;;;;;;;;;13.97;70.16;101299.91;5139724;27;56007;-78
2022/01/02 03:17:50;;;;;;;;;;;;;;;14.00;70.28;101307.59;5139929;27;55477;-79
2022/01/02 03:20:15;;;;;;;;;;;;;;;14.02;70.05;101303.22;5139269;27;56466;-78
2022/01/02 03:22:40;;;;;;;;;;;;;;;14.01;70.15;101299.78;5144098;27;54153;-78
2022/01/02 03:25:05;;;;;;;;;;;;;;;14.03;70.07;101297.13;5141779;27;57081;-79
2022/01/02 03:27:32;;;;;;;;;;;;;;;14.04;69.97;101297.09;5141810;27;26893;-79
2022/01/02 03:29:57;;;;;;;;;;;;;;;14.05;69.99;101295.34;5142288;27;26983;-78
2022/01/02 03:32:22;;;;;;;;;;;;;;;14.07;70.16;101290.94;5140948;27;54885;-78
2022/01/02 03:34:48;;;;;;;;;;;;;;;14.11;69.83;101281.28;5142067;27;26801;-78
2022/01/02 03:37:13;;;;;;;;;;;;;;;14.12;70.10;101281.25;5141911;27;26727;-78
2022/01/02 03:39:38;;;;;;;;;;;;;;;14.15;70.15;101275.94;5141573;27;32939;-79
2022/01/02 03:42:04;;;;;;;;;;;;;;;14.19;70.34;101267.16;5142061;27;26875;-78
2022/01/02 03:44:29;;;;;;;;;;;;;;;14.22;70.44;101267.06;5143308;27;26535;-79
2022/01/02 03:46:54;;;;;;;;;;;;;;;14.25;70.31;101256.56;5142024;27;36464;-79
2022/01/02 03:49:19;;;;;;;;;;;;;;;14.28;70.03;101266.88;5142156;27;57277;-77
2022/01/02 03:51:44;;;;;;;;;;;;;;;14.33;70.21;101244.16;5142019;27;54343;-79
2022/01/02 03:54:10;;;;;;;;;;;;;;;14.39;70.17;101244.00;5142665;27;56724;-78
2022/01/02 03:56:35;;;;;;;;;;;;;;;14.38;70.46;101252.69;5142849;27;26811;-80
2022/01/02 03:59:00;;;;;;;;;;;;;;;14.39;70.38;101253.56;5141903;27;47510;-78
2022/01/02 04:01:25;;;;;;;;;;;;;;;14.42;70.29;101246.50;5142828;27;37102;-78
2022/01/02 04:03:50;;;;;;;;;;;;;;;14.43;70.44;101255.16;5143564;27;27067;-78
2022/01/02 04:06:15;;;;;;;;;;;;;;;14.46;70.41;101250.69;5142191;27;54161;-77
2022/01/02 04:08:41;;;;;;;;;;;;;;;14.48;70.26;101238.50;5143100;27;26908;-78
2022/01/02 04:11:06;;;;;;;;;;;;;;;14.51;70.24;101248.78;5144305;27;26961;-78
2022/01/02 04:13:31;;;;;;;;;;;;;;;14.55;70.27;101248.69;5143535;27;27030;-78
2022/01/02 04:15:56;;;;;;;;;;;;;;;14.60;70.22;101236.38;5144740;27;53167;-78
2022/01/02 04:18:21;;;;;;;;;;;;;;;14.63;69.77;101228.44;5143518;27;55555;-78
2022/01/02 04:20:49;;;;;;;;;;;;;;;14.65;70.03;101234.47;5141652;27;55139;-78
2022/01/02 04:23:14;;;;;;;;;;;;;;;14.68;70.02;101236.94;5142200;27;27066;-78
2022/01/02 04:25:39;;;;;;;;;;;;;;;14.69;70.17;101236.06;5141195;27;52588;-78
2022/01/02 04:28:04;;;;;;;;;;;;;;;14.70;70.17;101228.19;5140903;27;57049;-78
2022/01/02 04:30:29;;;;;;;;;;;;;;;14.71;69.95;101221.25;5139242;27;55280;-79
2022/01/02 04:32:54;;;;;;;;;;;;;;;14.70;70.19;101227.34;5139265;27;55866;-79
2022/01/02 04:35:20;;;;;;;;;;;;;;;14.69;69.96;101220.47;5142555;27;26969;-77
2022/01/02 04:37:46;;;;;;;;;;;;;;;14.69;70.31;101220.47;5142656;27;26812;-77
2022/01/02 04:40:11;;;;;;;;;;;;;;;14.69;70.04;101225.66;5141450;27;26993;-77
2022/01/02 04:42:36;;;;;;;;;;;;;;;14.66;70.27;101231.78;5141503;27;27174;-78
2022/01/02 04:45:02;;;;;;;;;;;;;;;14.64;70.11;101237.97;5141723;27;26788;-78
2022/01/02 04:47:27;;;;;;;;;;;;;;;14.62;70.16;101230.19;5141369;27;26946;-78
2022/01/02 04:49:52;;;;;;;;;;;;;;;14.61;69.94;101232.88;5141190;27;26696;-79
2022/01/02 04:52:17;;;;;;;;;;;;;;;14.60;70.05;101220.78;5140733;27;26751;-78
2022/01/02 04:54:42;;;;;;;;;;;;;;;14.60;70.38;101225.97;5139792;27;53704;-77
2022/01/02 04:57:08;;;;;;;;;;;;;;;14.61;70.08;101217.28;5141309;27;26887;-78
2022/01/02 04:59:33;;;;;;;;;;;;;;;14.60;70.35;101225.97;5143845;27;38639;-78
2022/01/02 05:01:58;;;;;;;;;;;;;;;14.61;70.22;101217.28;5149123;27;46693;-78
2022/01/02 05:04:23;;;;;;;;;;;;;;;14.61;70.10;101222.47;5144297;27;26756;-78
2022/01/02 05:06:48;;;;;;;;;;;;;;;14.60;70.26;101210.38;5143198;27;40113;-78
2022/01/02 05:09:13;;;;;;;;;;;;;;;14.60;70.21;101210.38;5141608;27;53850;-79
2022/01/02 05:11:39;;;;;;;;;;;;;;;14.61;70.36;101222.47;5141690;27;56238;-78
2022/01/02 05:14:04;;;;;;;;;;;;;;;14.59;70.28;101230.31;5148515;27;53844;-77
2022/01/02 05:16:29;;;;;;;;;;;;;;;14.56;70.32;101232.16;5143128;27;26719;-80
2022/01/02 05:18:54;;;;;;;;;;;;;;;14.57;70.25;101226.09;5139326;27;26733;-81
2022/01/02 05:21:19;;;;;;;;;;;;;;;14.58;70.27;101222.59;5138444;27;47751;-78
2022/01/02 05:23:45;;;;;;;;;;;;;;;14.54;70.17;101221.00;5139174;27;26931;-77
2022/01/02 05:26:10;;;;;;;;;;;;;;;14.55;70.29;101212.31;5141215;27;26960;-78
2022/01/02 05:28:35;;;;;;;;;;;;;;;14.54;70.16;101210.59;5140199;27;54161;-77
2022/01/02 05:31:00;;;;;;;;;;;;;;;14.50;70.43;101205.50;5141063;27;26531;-78
2022/01/02 05:33:25;;;;;;;;;;;;;;;14.47;70.33;101195.19;5140028;27;26957;-79
2022/01/02 05:35:51;;;;;;;;;;;;;;;14.43;70.44;101188.41;5140401;27;49295;-78
2022/01/02 05:38:19;;;;;;;;;;;;;;;14.39;70.33;101202.44;5140817;27;26958;-78
2022/01/02 05:40:44;;;;;;;;;;;;;;;14.34;71.09;101199.13;5140416;27;27061;-78
2022/01/02 05:43:09;;;;;;;;;;;;;;;14.34;70.56;101204.31;5144090;27;26973;-79
2022/01/02 05:45:34;;;;;;;;;;;;;;;14.22;70.62;101175.28;5145158;27;27026;-79
2022/01/02 05:48:01;;;;;;;;;;;;;;;14.30;70.88;101200.09;5141735;27;36281;-79
2022/01/02 05:50:26;;;;;;;;;;;;;;;14.28;71.22;101188.91;5123796;27;28188;-79
2022/01/02 05:52:51;;;;;;;;;;;;;;;14.26;70.94;101190.72;5139510;27;53955;-78
2022/01/02 05:55:17;;;;;;;;;;;;;;;14.25;70.71;101173.41;5140570;27;26970;-78
2022/01/02 05:57:42;;;;;;;;;;;;;;;14.21;71.53;101177.00;5139900;27;26863;-77
2022/01/02 06:00:08;;;;;;;;;;;;;;;14.22;71.15;101168.31;5139419;27;26841;-78
2022/01/02 06:02:33;;;;;;;;;;;;;;;14.20;71.22;101164.94;5138581;27;26917;-78
2022/01/02 06:04:58;;;;;;;;;;;;;;;14.18;71.10;101145.94;5140490;27;56502;-79
2022/01/02 06:07:24;;;;;;;;;;;;;;;14.19;71.13;101155.44;5148131;27;26741;-81
2022/01/02 06:09:49;;;;;;;;;;;;;;;14.19;71.31;101142.47;5143343;27;27093;-79
2022/01/02 06:12:14;;;;;;;;;;;;;;;14.20;71.23;101133.78;5142525;27;26724;-80
2022/01/02 06:14:39;;;;;;;;;;;;;;;14.21;71.38;101125.06;5141776;27;56255;-79
2022/01/02 06:17:04;;;;;;;;;;;;;;;14.22;71.18;101121.56;5147354;27;54311;-79
2022/01/02 06:19:29;;;;;;;;;;;;;;;14.23;71.20;101106.81;5142876;27;57164;-80
2022/01/02 06:21:55;;;;;;;;;;;;;;;14.22;71.36;101110.31;5141896;27;54459;-80
2022/01/02 06:24:20;;;;;;;;;;;;;;;14.20;71.14;101094.81;5142026;27;26750;-80
2022/01/02 06:26:45;;;;;;;;;;;;;;;14.20;71.64;101087.00;5140964;27;26824;-80
2022/01/02 06:29:10;;;;;;;;;;;;;;;14.20;71.58;101094.81;5140100;27;56247;-80
2022/01/02 06:31:36;;;;;;;;;;;;;;;14.20;71.31;101094.81;5141641;27;27016;-80
2022/01/02 06:34:01;;;;;;;;;;;;;;;14.21;71.58;101104.25;5140618;27;27001;-79
2022/01/02 06:36:26;;;;;;;;;;;;;;;14.19;71.56;101093.09;5141552;27;26910;-80
2022/01/02 06:38:51;;;;;;;;;;;;;;;14.17;71.82;101096.66;5140256;27;49165;-80
2022/01/02 06:41:17;;;;;;;;;;;;;;;14.15;71.52;101083.72;5140626;27;40936;-80
2022/01/02 06:43:42;;;;;;;;;;;;;;;14.13;71.87;101074.28;5141215;27;27010;-79
2022/01/02 06:46:07;;;;;;;;;;;;;;;14.11;72.14;101066.53;5141887;27;26835;-80
2022/01/02 06:48:32;;;;;;;;;;;;;;;14.12;71.89;101046.59;5140225;27;55885;-79
2022/01/02 06:50:58;;;;;;;;;;;;;;;14.09;71.95;101042.38;5141614;27;26936;-79
2022/01/02 06:53:23;;;;;;;;;;;;;;;14.09;71.82;101031.97;5141677;27;26813;-80
2022/01/02 06:55:48;;;;;;;;;;;;;;;14.08;72.05;101009.50;5143666;27;54696;-79
2022/01/02 06:58:14;;;;;;;;;;;;;;;14.08;71.93;101022.50;5143840;27;35954;-80
2022/01/02 07:00:40;;;;;;;;;;;;;;;14.09;71.96;101026.78;5144286;27;26978;-80
2022/01/02 07:03:05;;;;;;;;;;;;;;;14.09;71.73;101018.16;5143459;27;27807;-79
2022/01/02 07:05:30;;;;;;;;;;;;;;;14.07;71.90;101002.59;5148580;27;53940;-79
2022/01/02 07:07:56;;;;;;;;;;;;;;;14.07;72.42;100996.56;5146359;27;56642;-80
2022/01/02 07:10:21;;;;;;;;;;;;;;;14.05;72.18;100988.84;5144833;27;26636;-80
2022/01/02 07:12:46;;;;;;;;;;;;;;;14.05;72.17;100968.06;5142670;27;56967;-80
2022/01/02 07:15:11;;;;;;;;;;;;;;;14.08;72.23;100961.91;5143284;27;37075;-79
2022/01/02 07:17:36;;;;;;;;;;;;;;;14.07;72.21;100955.84;5143160;27;26797;-79
2022/01/02 07:20:04;;;;;;;;;;;;;;;14.08;71.90;100951.50;5142203;27;53537;-79
2022/01/02 07:22:29;;;;;;;;;;;;;;;14.09;72.17;100948.88;5142928;27;28884;-78
2022/01/02 07:24:54;;;;;;;;;;;;;;;14.09;72.20;100928.09;5141183;27;53861;-78
2022/01/02 07:27:19;;;;;;;;;;;;;;;14.11;72.29;100915.88;5140945;27;55671;-79
2022/01/02 07:29:48;;;;;;;;;;;;;;;14.12;72.13;100912.38;5141897;27;26844;-78
2022/01/02 07:32:14;;;;;;;;;;;;;;;14.14;72.10;100905.38;5141924;27;27394;-78
2022/01/02 07:34:39;;;;;;;;;;;;;;;14.15;71.90;100901.88;5148288;27;26850;-78
2022/01/02 07:37:04;;;;;;;;;;;;;;;14.18;71.97;100901.75;5144966;27;26660;-78
2022/01/02 07:39:30;;;;;;;;;;;;;;;14.20;71.99;100894.75;5141200;27;26830;-79
2022/01/02 07:41:55;;;;;;;;;;;;;;;14.21;71.65;100886.03;5142002;27;27329;-79
2022/01/02 07:44:20;;;;;;;;;;;;;;;14.22;71.98;100881.69;5141618;27;27094;-81
2022/01/02 07:46:45;;;;;;;;;;;;;;;14.23;71.90;100886.00;5140136;27;51395;-80
2022/01/02 07:49:10;;;;;;;;;;;;;;;14.23;71.92;100889.44;5141291;27;26796;-80
2022/01/02 07:51:36;;;;;;;;;;;;;;;14.25;71.85;100898.00;5141269;27;27865;-80
2022/01/02 07:54:01;;;;;;;;;;;;;;;14.25;71.82;100887.59;5140483;27;45063;-80
2022/01/02 07:56:26;;;;;;;;;;;;;;;14.26;71.79;100888.47;5140350;27;26768;-81
2022/01/02 07:58:51;;;;;;;;;;;;;;;14.26;71.96;100878.06;5141081;27;26847;-80
2022/01/02 08:01:17;;;;;;;;;;;;;;;14.26;71.92;100884.13;5139717;27;56409;-80
2022/01/02 08:03:42;;;;;;;;;;;;;;;14.27;71.83;100880.63;5141123;27;26903;-80
2022/01/02 08:06:07;;;;;;;;;;;;;;;14.27;71.77;100880.63;5139632;27;26802;-80
2022/01/02 08:08:32;;;;;;;;;;;;;;;14.26;71.79;100878.91;5139930;27;26790;-80
2022/01/02 08:10:57;;;;;;;;;;;;;;;14.27;71.93;100875.44;5143501;27;33489;-79
2022/01/02 08:13:23;;;;;;;;;;;;;;;14.27;71.83;100870.22;5143971;27;26737;-80
2022/01/02 08:15:49;;;;;;;;;;;;;;;14.27;71.64;100870.22;5143079;27;26794;-80
2022/01/02 08:18:14;;;;;;;;;;;;;;;14.27;71.67;100859.84;5141801;27;26867;-79
2022/01/02 08:20:40;;;;;;;;;;;;;;;14.28;72.04;100866.72;5144123;27;27034;-80
2022/01/02 08:23:06;;;;;;;;;;;;;;;14.29;71.76;100868.41;5149422;27;26902;-80
2022/01/02 08:25:31;;;;;;;;;;;;;;;14.28;71.94;100855.50;5142242;27;27633;-80
2022/01/02 08:27:56;;;;;;;;;;;;;;;14.29;71.80;100862.34;5141787;27;27226;-80
2022/01/02 08:30:21;;;;;;;;;;;;;;;14.30;71.66;100858.84;5140327;27;47066;-81
2022/01/02 08:32:46;;;;;;;;;;;;;;;14.28;71.64;100882.31;5141352;27;26858;-81
2022/01/02 08:35:12;;;;;;;;;;;;;;;14.24;71.97;100888.53;5142346;27;56898;-80
2022/01/02 08:37:37;;;;;;;;;;;;;;;14.23;71.92;100894.63;5143134;27;52107;-80
2022/01/02 08:40:03;;;;;;;;;;;;;;;14.21;71.49;100904.22;5141915;27;27042;-79
2022/01/02 08:42:28;;;;;;;;;;;;;;;14.21;71.83;100916.38;5141946;27;27035;-79
2022/01/02 08:44:53;;;;;;;;;;;;;;;14.20;71.74;100915.53;5140503;27;55891;-80
2022/01/02 08:47:18;;;;;;;;;;;;;;;14.19;71.75;100924.22;5139873;27;55124;-79
2022/01/02 08:49:44;;;;;;;;;;;;;;;14.19;71.79;100929.44;5142044;27;56067;-79
2022/01/02 08:52:09;;;;;;;;;;;;;;;14.20;71.66;100930.28;5145585;27;26853;-80
2022/01/02 08:54:34;;;;;;;;;;;;;;;14.19;71.70;100903.44;5141554;27;40057;-80
2022/01/02 08:57:02;;;;;;;;;;;;;;;14.19;71.39;100892.19;5140999;27;46563;-78
2022/01/02 08:59:28;;;;;;;;;;;;;;;14.19;71.23;100903.44;5141157;27;26842;-78
2022/01/02 09:01:53;;;;;;;;;;;;;;;14.18;71.47;100880.13;5141783;27;26799;-78
2022/01/02 09:04:19;;;;;;;;;;;;;;;14.18;71.61;100873.16;5141463;27;26975;-78
2022/01/02 09:06:44;;;;;;;;;;;;;;;14.21;71.57;100865.25;5140725;27;45992;-78
2022/01/02 09:09:09;;;;;;;;;;;;;;;14.21;71.36;100846.25;5139181;27;57061;-78
2022/01/02 09:11:34;;;;;;;;;;;;;;;14.24;71.21;100844.38;5139777;27;54633;-78
2022/01/02 09:14:01;;;;;;;;;;;;;;;14.27;71.31;100859.84;5122349;27;27810;-80
2022/01/02 09:16:26;;;;;;;;;;;;;;;14.29;71.37;100860.59;5140554;27;26985;-80
2022/01/02 09:18:51;;;;;;;;;;;;;;;14.34;71.11;100837.94;5140176;27;26849;-78
2022/01/02 09:21:16;;;;;;;;;;;;;;;14.36;70.84;100833.50;5141589;27;55146;-79
2022/01/02 09:23:41;;;;;;;;;;;;;;;14.38;70.89;100842.09;5140412;27;53120;-80
2022/01/02 09:26:07;;;;;;;;;;;;;;;14.38;70.60;100862.88;5138879;27;53681;-80
2022/01/02 09:28:32;;;;;;;;;;;;;;;14.41;70.30;100847.16;5139859;27;27056;-81
2022/01/02 09:30:57;;;;;;;;;;;;;;;14.45;71.24;100853.94;5139995;27;26811;-81
2022/01/02 09:33:22;;;;;;;;;;;;;;;14.48;71.06;100852.97;5138329;27;54174;-79
2022/01/02 09:35:47;;;;;;;;;;;;;;;14.51;70.86;100838.09;5140207;27;54159;-78
2022/01/02 09:38:12;;;;;;;;;;;;;;;14.55;70.95;100837.97;5143688;27;33018;-78
2022/01/02 09:40:40;;;;;;;;;;;;;;;14.58;71.00;100848.25;5142410;27;28696;-80
2022/01/02 09:43:05;;;;;;;;;;;;;;;14.61;70.79;100858.53;5141502;27;26808;-78
2022/01/02 09:45:35;;;;;;;;;;;;;;;14.63;70.66;100851.50;5142881;27;26756;-78
2022/01/02 09:48:01;;;;;;;;;;;;;;;14.62;70.36;100839.41;5142454;27;26999;-78
2022/01/02 09:50:27;;;;;;;;;;;;;;;14.59;69.74;100849.91;5143330;27;26954;-78
2022/01/02 09:52:52;;;;;;;;;;;;;;;14.62;70.35;100866.22;5141650;27;26808;-79
2022/01/02 09:55:17;;;;;;;;;;;;;;;14.64;69.99;100848.00;5141830;27;26902;-79
2022/01/02 09:57:43;;;;;;;;;;;;;;;14.62;69.33;100845.44;5142002;27;26976;-78
2022/01/02 10:00:09;;;;;;;;;;;;;;;14.61;69.01;100848.13;5141768;27;26905;-79
2022/01/02 10:02:55;;;;;;;;;;;;;;;14.63;69.45;100843.69;5142116;27;26888;-78
2022/01/02 10:05:24;;;;;;;;;;;;;;;14.65;69.33;100840.13;5140032;27;26911;-79
2022/01/02 10:07:49;;;;;;;;;;;;;;;14.64;68.85;100842.78;5138153;27;26914;-80
2022/01/02 10:10:14;;;;;;;;;;;;;;;14.68;69.10;100837.41;5138309;27;55169;-80
2022/01/02 10:12:39;;;;;;;;;;;;;;;14.70;69.76;100826.94;5139978;27;26800;-80
2022/01/02 10:15:08;;;;;;;;;;;;;;;14.74;69.40;100818.09;5138803;27;53927;-80
2022/01/02 10:17:52;;;;;;;;;;;;;;;14.77;69.32;100825.78;5139770;27;26963;-80
2022/01/02 10:20:18;;;;;;;;;;;;;;;14.77;69.19;100828.38;5139092;27;26864;-80
2022/01/02 10:22:59;;;;;;;;;;;;;;;14.74;68.69;100823.28;5138288;27;27812;-80
2022/01/02 10:25:43;;;;;;;;;;;;;;;14.72;68.56;100825.13;5139221;27;26865;-80
2022/01/02 10:28:18;;;;;;;;;;;;;;;14.68;68.34;100827.00;5141452;27;27842;-80
2022/01/02 10:30:50;;;;;;;;;;;;;;;14.64;68.42;100822.84;5142602;27;27008;-79
2022/01/02 10:33:16;;;;;;;;;;;;;;;14.63;68.59;100830.69;5143105;27;26776;-80
2022/01/02 10:35:41;;;;;;;;;;;;;;;14.61;68.23;100816.94;5142939;27;27090;-80
2022/01/02 10:38:06;;;;;;;;;;;;;;;14.61;68.37;100822.13;5142298;27;26755;-80
2022/01/02 10:40:41;;;;;;;;;;;;;;;14.57;68.09;100831.81;5147344;27;26884;-80
2022/01/02 10:43:07;;;;;;;;;;;;;;;14.56;68.11;100829.25;5142497;27;27615;-79
2022/01/02 10:45:44;;;;;;;;;;;;;;;14.54;67.61;100828.47;5142607;27;26938;-81
2022/01/02 10:48:11;;;;;;;;;;;;;;;14.48;67.45;100833.00;5142350;27;26834;-80
2022/01/02 10:50:37;;;;;;;;;;;;;;;14.47;67.79;100831.31;5140998;27;26865;-80
2022/01/02 10:53:13;;;;;;;;;;;;;;;14.49;68.09;100829.50;5140212;27;27028;-79
2022/01/02 10:55:38;;;;;;;;;;;;;;;14.46;67.72;100829.66;5141611;27;27000;-79
2022/01/02 10:58:06;;;;;;;;;;;;;;;14.48;68.06;100820.03;5141068;27;26955;-80
2022/01/02 11:00:31;;;;;;;;;;;;;;;14.50;67.63;100812.16;5140958;27;26766;-79
2022/01/02 11:02:58;;;;;;;;;;;;;;;14.54;67.72;100810.28;5141810;27;26733;-80
2022/01/02 11:05:23;;;;;;;;;;;;;;;14.58;67.89;100806.66;5141494;27;26804;-80
2022/01/02 11:07:50;;;;;;;;;;;;;;;14.64;68.10;100801.19;5141064;27;26968;-79
2022/01/02 11:10:17;;;;;;;;;;;;;;;14.69;67.91;100805.31;5140894;27;26978;-80
2022/01/02 11:12:43;;;;;;;;;;;;;;;14.76;67.97;100795.50;5140930;27;27617;-79
2022/01/02 11:15:09;;;;;;;;;;;;;;;14.85;67.63;100801.13;5141129;27;26846;-80
2022/01/02 11:17:35;;;;;;;;;;;;;;;14.85;66.90;100800.28;5140864;27;26962;-80
2022/01/02 11:20:03;;;;;;;;;;;;;;;14.92;66.94;100806.94;5141393;27;27017;-80
2022/01/02 11:22:33;;;;;;;;;;;;;;;14.97;66.58;100810.16;5141491;27;27073;-80
2022/01/02 11:25:01;;;;;;;;;;;;;;;15.03;67.02;100809.91;5141230;27;26925;-80
2022/01/02 11:27:36;;;;;;;;;;;;;;;15.06;66.63;100791.56;5139995;27;26949;-80
2022/01/02 11:30:20;;;;;;;;;;;;;;;15.11;66.69;100797.41;5139825;27;26834;-80
2022/01/02 11:32:58;;;;;;;;;;;;;;;15.16;66.65;100790.25;5140621;27;27073;-80
2022/01/02 11:35:25;;;;;;;;;;;;;;;15.21;66.42;100787.44;5143131;27;27087;-80
2022/01/02 11:37:51;;;;;;;;;;;;;;;15.20;65.87;100806.56;5141575;27;27034;-80
2022/01/02 11:40:16;;;;;;;;;;;;;;;15.17;65.42;100797.16;5139784;27;26912;-80
2022/01/02 11:42:42;;;;;;;;;;;;;;;15.16;65.35;100794.59;5141053;27;43150;-81
2022/01/02 11:45:23;;;;;;;;;;;;;;;15.15;65.76;100800.72;5141638;27;27017;-80
2022/01/02 11:47:48;;;;;;;;;;;;;;;15.13;65.48;100799.94;5141510;27;27583;-80
2022/01/02 11:50:30;;;;;;;;;;;;;;;15.14;65.55;100792.09;5123023;27;26799;-80
2022/01/02 11:53:13;;;;;;;;;;;;;;;15.15;65.64;100793.75;5141534;27;27407;-80
2022/01/02 11:55:39;;;;;;;;;;;;;;;15.11;65.21;100807.81;5141226;27;26881;-80
2022/01/02 11:58:04;;;;;;;;;;;;;;;15.14;65.64;100786.03;5141641;27;26816;-81
2022/01/02 12:00:34;;;;;;;;;;;;;;;15.13;65.80;100785.19;5143537;27;26987;-79
2022/01/02 12:02:59;;;;;;;;;;;;;;;15.17;65.53;100789.34;5140273;27;27799;-79
2022/01/02 12:05:24;;;;;;;;;;;;;;;15.13;65.88;100779.97;5140087;27;26783;-80
2022/01/02 12:07:50;;;;;;;;;;;;;;;15.13;65.33;100789.53;5140039;27;27964;-79
2022/01/02 12:10:23;;;;;;;;;;;;;;;15.08;65.86;100781.94;5140408;27;27147;-80
2022/01/02 12:12:58;;;;;;;;;;;;;;;15.06;65.90;100782.91;5140571;27;26743;-80
2022/01/02 12:15:23;;;;;;;;;;;;;;;15.04;66.15;100782.97;5122983;27;27094;-79
2022/01/02 12:18:07;;;;;;;;;;;;;;;15.02;66.10;100769.22;5141983;27;57515;-79
2022/01/02 12:20:51;;;;;;;;;;;;;;;15.02;66.48;100777.00;5141394;27;26829;-79
2022/01/02 12:23:36;;;;;;;;;;;;;;;15.05;66.46;100771.66;5144406;27;27761;-79
2022/01/02 12:26:06;;;;;;;;;;;;;;;15.02;66.12;100777.00;5129901;27;27022;-79
2022/01/02 12:28:37;;;;;;;;;;;;;;;15.02;66.19;100774.41;5143640;27;28353;-79
2022/01/02 12:31:02;;;;;;;;;;;;;;;15.01;66.45;100770.09;5141200;27;26719;-80
2022/01/02 12:33:30;;;;;;;;;;;;;;;15.02;66.07;100765.75;5140895;27;26920;-80
2022/01/02 12:35:55;;;;;;;;;;;;;;;15.01;66.59;100770.09;5141285;27;26681;-79
2022/01/02 12:38:20;;;;;;;;;;;;;;;15.04;66.39;100767.38;5143022;27;26885;-79